createdAt,value
2019-03-02T00:01:45.787Z,5.60
2019-03-02T00:04:16.286Z,5.60
2019-03-02T00:06:45.876Z,5.60
2019-03-02T00:09:15.471Z,5.60
2019-03-02T00:11:44.956Z,5.60
2019-03-02T00:14:15.705Z,5.60
2019-03-02T00:16:46.197Z,5.60
2019-03-02T00:19:15.725Z,5.60
2019-03-02T00:21:45.328Z,5.60
2019-03-02T00:24:15.024Z,5.60
2019-03-02T00:26:45.972Z,5.60
2019-03-02T00:29:15.893Z,5.60
2019-03-02T00:31:45.522Z,5.60
2019-03-02T00:34:15.114Z,5.60
2019-03-02T00:37:02.648Z,5.60
2019-03-02T00:39:32.231Z,5.60
2019-03-02T00:42:01.997Z,5.50
2019-03-02T00:44:31.629Z,5.50
2019-03-02T00:47:01.231Z,5.60
2019-03-02T00:49:30.820Z,5.60
2019-03-02T00:52:00.526Z,5.50
2019-03-02T00:54:30.106Z,5.50
2019-03-02T00:56:59.995Z,5.50
2019-03-02T00:59:29.541Z,5.50
2019-03-02T01:02:00.695Z,5.50
2019-03-02T01:04:30.366Z,5.60
2019-03-02T01:06:59.977Z,5.50
2019-03-02T01:09:29.717Z,5.50
2019-03-02T01:11:59.476Z,5.50
2019-03-02T01:14:31.838Z,5.50
2019-03-02T01:17:00.254Z,5.50
2019-03-02T01:19:30.201Z,5.50
2019-03-02T01:21:59.976Z,5.50
2019-03-02T01:24:29.454Z,5.50
2019-03-02T01:26:59.406Z,5.50
2019-03-02T01:29:30.191Z,5.50
2019-03-02T01:31:59.789Z,5.50
2019-03-02T01:34:29.338Z,5.50
2019-03-02T01:36:58.907Z,5.50
2019-03-02T01:39:29.188Z,5.50
2019-03-02T01:41:59.819Z,5.40
2019-03-02T01:44:29.308Z,5.40
2019-03-02T01:46:59.445Z,5.40
2019-03-02T01:49:29.040Z,5.40
2019-03-02T01:51:59.121Z,5.40
2019-03-02T01:54:28.893Z,5.40
2019-03-02T01:56:58.733Z,5.40
2019-03-02T01:59:28.265Z,5.40
2019-03-02T02:02:00.074Z,5.40
2019-03-02T02:04:29.031Z,5.40
2019-03-02T02:06:58.949Z,5.40
2019-03-02T02:09:28.867Z,5.40
2019-03-02T02:11:58.487Z,5.40
2019-03-02T02:14:28.073Z,5.40
2019-03-02T02:16:57.667Z,5.40
2019-03-02T02:19:27.228Z,5.40
2019-03-02T02:21:58.824Z,5.40
2019-03-02T02:24:28.358Z,5.40
2019-03-02T02:26:57.861Z,5.40
2019-03-02T02:29:27.653Z,5.40
2019-03-02T02:31:57.181Z,5.40
2019-03-02T02:34:26.739Z,5.40
2019-03-02T02:36:58.252Z,5.40
2019-03-02T02:39:28.998Z,5.40
2019-03-02T02:42:00.066Z,5.40
2019-03-02T02:44:33.202Z,5.40
2019-03-02T02:47:01.483Z,5.40
2019-03-02T02:49:31.362Z,5.40
2019-03-02T02:52:00.943Z,5.40
2019-03-02T02:54:30.948Z,5.40
2019-03-02T02:57:00.750Z,5.30
2019-03-02T02:59:33.991Z,5.40
2019-03-02T03:02:01.692Z,5.30
2019-03-02T03:04:32.493Z,5.30
2019-03-02T03:07:07.217Z,5.20
2019-03-02T03:09:45.420Z,5.10
2019-03-02T03:12:17.903Z,5.10
2019-03-02T03:14:45.201Z,5.10
2019-03-02T03:17:14.814Z,5.10
2019-03-02T03:19:44.325Z,5.10
2019-03-02T03:22:13.897Z,5.10
2019-03-02T03:24:43.529Z,5.10
2019-03-02T03:27:14.586Z,5.10
2019-03-02T03:29:49.023Z,5.10
2019-03-02T03:32:16.091Z,5.10
2019-03-02T03:34:45.690Z,5.10
2019-03-02T03:37:15.262Z,5.10
2019-03-02T03:39:46.379Z,5.10
2019-03-02T03:42:22.304Z,5.10
2019-03-02T03:44:47.403Z,5.10
2019-03-02T03:47:17.056Z,5.10
2019-03-02T03:49:46.634Z,5.10
2019-03-02T03:52:16.242Z,5.10
2019-03-02T03:54:46.463Z,5.10
2019-03-02T03:57:17.115Z,5.10
2019-03-02T03:59:47.472Z,5.10
2019-03-02T04:02:16.971Z,5.10
2019-03-02T04:04:46.584Z,5.10
2019-03-02T04:07:33.742Z,5.10
2019-03-02T04:10:03.250Z,5.10
2019-03-02T04:12:32.857Z,5.10
2019-03-02T04:15:03.114Z,5.10
2019-03-02T04:17:34.312Z,5.10
2019-03-02T04:20:08.004Z,5.10
2019-03-02T04:22:39.853Z,5.10
2019-03-02T04:25:07.267Z,5.10
2019-03-02T04:27:36.968Z,5.10
2019-03-02T04:30:07.507Z,5.10
2019-03-02T04:32:37.944Z,5.10
2019-03-02T04:35:08.251Z,5.10
2019-03-02T04:37:38.010Z,5.20
2019-03-02T04:40:09.101Z,5.20
2019-03-02T04:42:38.764Z,5.20
2019-03-02T04:45:08.896Z,5.20
2019-03-02T04:47:38.469Z,5.20
2019-03-02T04:50:08.574Z,5.20
2019-03-02T04:52:38.149Z,5.20
2019-03-02T04:55:09.403Z,5.20
2019-03-02T04:57:39.450Z,5.20
2019-03-02T05:00:12.078Z,5.20
2019-03-02T05:02:41.855Z,5.20
2019-03-02T05:05:11.457Z,5.20
2019-03-02T05:07:41.026Z,5.20
2019-03-02T05:10:11.200Z,5.20
2019-03-02T05:12:40.846Z,5.20
2019-03-02T05:15:48.921Z,5.20
2019-03-02T05:18:18.983Z,5.20
2019-03-02T05:20:48.558Z,5.10
2019-03-02T05:23:18.099Z,5.10
2019-03-02T05:25:47.786Z,5.10
2019-03-02T05:28:17.386Z,5.10
2019-03-02T05:30:47.175Z,5.10
2019-03-02T05:33:16.643Z,5.10
2019-03-02T05:35:47.753Z,5.10
2019-03-02T05:38:17.398Z,5.10
2019-03-02T05:40:46.926Z,5.10
2019-03-02T05:43:16.415Z,5.10
2019-03-02T05:45:45.998Z,5.10
2019-03-02T05:48:16.662Z,5.10
2019-03-02T05:50:46.053Z,5.00
2019-03-02T05:53:15.381Z,5.00
2019-03-02T05:55:45.025Z,5.00
2019-03-02T05:58:32.424Z,5.00
2019-03-02T06:01:02.012Z,5.00
2019-03-02T06:03:31.445Z,5.10
2019-03-02T06:06:00.872Z,5.10
2019-03-02T06:08:48.305Z,5.10
2019-03-02T06:11:17.689Z,5.10
2019-03-02T06:13:48.102Z,5.20
2019-03-02T06:16:18.738Z,5.20
2019-03-02T06:18:48.511Z,5.20
2019-03-02T06:21:17.915Z,5.20
2019-03-02T06:24:23.340Z,5.20
2019-03-02T06:26:52.819Z,5.20
2019-03-02T06:29:22.201Z,5.20
2019-03-02T06:31:54.021Z,5.20
2019-03-02T06:34:22.663Z,5.30
2019-03-02T06:36:51.976Z,5.30
2019-03-02T06:39:21.348Z,5.30
2019-03-02T06:41:50.729Z,5.30
2019-03-02T06:44:20.200Z,5.30
2019-03-02T06:46:49.588Z,5.30
2019-03-02T06:49:21.700Z,5.20
2019-03-02T06:51:51.043Z,5.20
2019-03-02T06:54:21.981Z,5.20
2019-03-02T06:56:57.844Z,5.20
2019-03-02T06:59:22.564Z,5.20
2019-03-02T07:01:51.925Z,5.20
2019-03-02T07:04:21.966Z,5.20
2019-03-02T07:06:52.497Z,5.20
2019-03-02T07:09:21.925Z,5.20
2019-03-02T07:11:51.476Z,5.20
2019-03-02T07:14:39.361Z,5.20
2019-03-02T07:17:08.737Z,5.10
2019-03-02T07:19:45.028Z,5.20
2019-03-02T07:22:16.861Z,5.20
2019-03-02T07:24:45.757Z,5.20
2019-03-02T07:27:15.141Z,5.30
2019-03-02T07:29:44.501Z,5.30
2019-03-02T07:32:13.944Z,5.30
2019-03-02T07:34:43.766Z,5.30
2019-03-02T07:37:14.100Z,5.30
2019-03-02T07:39:43.480Z,5.30
2019-03-02T07:42:12.905Z,5.30
2019-03-02T07:44:42.634Z,5.40
2019-03-02T07:47:12.016Z,5.40
2019-03-02T07:49:41.400Z,5.30
2019-03-02T07:52:13.682Z,5.30
2019-03-02T07:54:42.455Z,5.30
2019-03-02T07:57:12.863Z,5.30
2019-03-02T07:59:42.259Z,5.40
2019-03-02T08:02:11.966Z,5.40
2019-03-02T08:04:41.323Z,5.40
2019-03-02T08:07:10.703Z,5.50
2019-03-02T08:09:40.037Z,5.60
2019-03-02T08:12:09.792Z,5.60
2019-03-02T08:14:39.138Z,5.60
2019-03-02T08:17:09.858Z,5.70
2019-03-02T08:19:39.642Z,5.70
2019-03-02T08:22:11.095Z,5.70
2019-03-02T08:24:43.498Z,5.70
2019-03-02T08:27:11.193Z,5.70
2019-03-02T08:29:40.588Z,5.70
2019-03-02T08:32:10.411Z,5.80
2019-03-02T08:34:42.951Z,5.80
2019-03-02T08:37:11.000Z,5.80
2019-03-02T08:39:42.759Z,5.70
2019-03-02T08:42:12.181Z,5.60
2019-03-02T08:44:42.595Z,5.60
2019-03-02T08:47:11.992Z,5.60
2019-03-02T08:49:41.869Z,5.60
2019-03-02T08:52:12.158Z,5.70
2019-03-02T08:54:41.522Z,5.70
2019-03-02T08:57:10.954Z,5.70
2019-03-02T08:59:40.379Z,5.70
2019-03-02T09:02:09.882Z,5.70
2019-03-02T09:04:39.240Z,5.70
2019-03-02T09:07:26.820Z,5.70
2019-03-02T09:09:56.200Z,5.60
2019-03-02T09:12:25.610Z,5.60
2019-03-02T09:14:54.978Z,5.70
2019-03-02T09:17:24.728Z,5.70
2019-03-02T09:19:55.665Z,5.70
2019-03-02T09:22:25.916Z,5.80
2019-03-02T09:24:55.528Z,5.80
2019-03-02T09:27:24.887Z,5.80
2019-03-02T09:29:55.770Z,5.80
2019-03-02T09:32:25.444Z,5.80
2019-03-02T09:34:54.950Z,5.90
2019-03-02T09:37:24.421Z,5.90
2019-03-02T09:39:53.808Z,5.90
2019-03-02T09:42:23.221Z,5.90
2019-03-02T09:44:53.014Z,6.00
2019-03-02T09:47:22.377Z,6.20
2019-03-02T09:49:51.808Z,6.20
2019-03-02T09:52:21.343Z,6.30
2019-03-02T09:54:50.865Z,6.40
2019-03-02T09:57:20.264Z,6.50
2019-03-02T09:59:49.725Z,6.70
2019-03-02T10:02:19.185Z,6.80
2019-03-02T10:04:48.706Z,6.90
2019-03-02T10:07:18.079Z,7.00
2019-03-02T10:09:47.460Z,7.20
2019-03-02T10:12:16.900Z,7.40
2019-03-02T10:14:46.393Z,7.60
2019-03-02T10:17:15.806Z,7.60
2019-03-02T10:19:45.211Z,7.50
2019-03-02T10:22:14.586Z,7.60
2019-03-02T10:24:44.281Z,7.70
2019-03-02T10:27:17.167Z,7.90
2019-03-02T10:29:48.114Z,7.60
2019-03-02T10:32:15.962Z,7.90
2019-03-02T10:34:45.337Z,8.00
2019-03-02T10:37:14.740Z,8.10
2019-03-02T10:39:44.103Z,8.40
2019-03-02T10:42:13.604Z,8.30
2019-03-02T10:44:45.020Z,8.50
2019-03-02T10:47:15.078Z,8.80
2019-03-02T10:49:48.045Z,8.80
2019-03-02T10:52:15.882Z,9.00
2019-03-02T10:54:45.315Z,9.00
2019-03-02T10:57:15.011Z,8.80
2019-03-02T10:59:47.770Z,8.70
2019-03-02T11:02:16.898Z,9.00
2019-03-02T11:04:59.159Z,9.00
2019-03-02T11:07:48.798Z,9.50
2019-03-02T11:10:29.105Z,9.10
2019-03-02T11:13:32.891Z,9.10
2019-03-02T11:16:21.366Z,9.40
2019-03-02T11:19:18.870Z,9.60
2019-03-02T11:22:10.887Z,9.10
2019-03-02T11:25:02.830Z,9.00
2019-03-02T11:27:57.371Z,9.10
2019-03-02T11:30:44.257Z,9.40
2019-03-02T11:33:35.955Z,9.80
2019-03-02T11:36:30.240Z,10.00
2019-03-02T11:39:36.750Z,10.30
2019-03-02T11:42:20.547Z,10.40
2019-03-02T11:45:24.045Z,11.20
2019-03-02T11:48:13.646Z,11.30
2019-03-02T11:51:00.677Z,11.20
2019-03-02T11:53:48.736Z,11.40
2019-03-02T11:56:39.122Z,11.20
2019-03-02T11:59:41.950Z,11.70
2019-03-02T12:02:43.843Z,12.20
2019-03-02T12:05:50.172Z,12.60
2019-03-02T12:08:47.330Z,12.50
2019-03-02T12:11:26.863Z,11.80
2019-03-02T12:14:27.598Z,11.80
2019-03-02T12:17:14.814Z,12.30
2019-03-02T12:20:10.161Z,13.10
2019-03-02T12:23:06.351Z,14.00
2019-03-02T12:25:57.771Z,13.60
2019-03-02T12:28:54.896Z,13.60
2019-03-02T12:31:34.054Z,13.70
2019-03-02T12:34:22.375Z,13.00
2019-03-02T12:37:06.332Z,13.00
2019-03-02T12:40:02.792Z,13.00
2019-03-02T12:42:50.604Z,13.00
2019-03-02T12:45:33.739Z,12.00
2019-03-02T12:48:25.412Z,11.30
2019-03-02T12:51:12.484Z,11.60
2019-03-02T12:54:00.916Z,11.80
2019-03-02T12:56:55.721Z,11.50
2019-03-02T12:59:59.475Z,11.80
2019-03-02T13:02:43.448Z,11.60
2019-03-02T13:05:21.435Z,11.50
2019-03-02T13:08:15.406Z,11.90
2019-03-02T13:11:03.945Z,12.00
2019-03-02T13:14:15.047Z,11.70
2019-03-02T13:17:03.713Z,11.60
2019-03-02T13:19:41.742Z,11.40
2019-03-02T13:22:36.104Z,11.00
2019-03-02T13:25:24.009Z,11.30
2019-03-02T13:28:21.784Z,10.90
2019-03-02T13:30:57.590Z,10.90
2019-03-02T13:33:46.040Z,10.80
2019-03-02T13:36:44.126Z,10.90
2019-03-02T13:39:26.925Z,10.50
2019-03-02T13:42:22.571Z,10.30
2019-03-02T13:45:06.174Z,10.20
2019-03-02T13:47:53.204Z,10.20
2019-03-02T13:50:37.156Z,10.10
2019-03-02T13:53:33.932Z,10.30
2019-03-02T13:56:22.257Z,10.20
2019-03-02T13:59:04.426Z,10.20
2019-03-02T14:01:51.939Z,10.10
2019-03-02T14:04:43.080Z,10.10
2019-03-02T14:07:40.797Z,10.20
2019-03-02T14:10:28.482Z,11.10
2019-03-02T14:13:33.288Z,11.30
2019-03-02T14:16:32.106Z,11.40
2019-03-02T14:19:27.589Z,11.60
2019-03-02T14:22:14.817Z,11.30
2019-03-02T14:25:12.325Z,11.10
2019-03-02T14:28:16.013Z,10.60
2019-03-02T14:31:01.030Z,10.60
2019-03-02T14:33:52.906Z,10.40
2019-03-02T14:36:39.955Z,10.20
2019-03-02T14:39:34.573Z,10.10
2019-03-02T14:42:29.637Z,10.00
2019-03-02T14:45:11.176Z,10.10
2019-03-02T14:48:09.373Z,10.40
2019-03-02T14:51:02.725Z,10.30
2019-03-02T14:54:03.284Z,10.30
2019-03-02T14:56:49.261Z,10.50
2019-03-02T14:59:49.868Z,10.50
2019-03-02T15:02:36.066Z,10.70
2019-03-02T15:05:30.510Z,10.40
2019-03-02T15:09:04.862Z,10.60
2019-03-02T15:11:51.795Z,10.60
2019-03-02T15:14:43.920Z,11.00
2019-03-02T15:17:45.255Z,10.80
2019-03-02T15:20:40.652Z,10.80
2019-03-02T15:23:19.331Z,10.80
2019-03-02T15:26:06.350Z,10.70
2019-03-02T15:28:58.925Z,10.60
2019-03-02T15:31:47.386Z,10.40
2019-03-02T15:34:33.723Z,10.20
2019-03-02T15:37:28.240Z,10.30
2019-03-02T15:40:20.315Z,10.20
2019-03-02T15:43:12.734Z,10.30
2019-03-02T15:46:08.046Z,10.20
2019-03-02T15:48:59.644Z,10.20
2019-03-02T15:51:37.791Z,10.10
2019-03-02T15:54:38.283Z,10.00
2019-03-02T15:57:29.502Z,9.80
2019-03-02T16:00:21.073Z,9.60
2019-03-02T16:03:09.926Z,9.50
2019-03-02T16:06:04.306Z,9.40
2019-03-02T16:08:42.226Z,9.30
2019-03-02T16:11:43.206Z,9.20
2019-03-02T16:14:37.763Z,9.20
2019-03-02T16:17:21.498Z,9.20
2019-03-02T16:20:18.147Z,9.30
2019-03-02T16:23:05.938Z,9.30
2019-03-02T16:26:03.343Z,9.30
2019-03-02T16:28:54.966Z,9.30
2019-03-02T16:31:36.908Z,9.20
2019-03-02T16:34:40.426Z,9.10
2019-03-02T16:37:28.323Z,9.10
2019-03-02T16:40:22.161Z,9.10
2019-03-02T16:43:15.943Z,9.10
2019-03-02T16:45:52.436Z,9.10
2019-03-02T16:48:46.848Z,9.00
2019-03-02T16:51:30.814Z,9.00
2019-03-02T16:54:37.562Z,8.90
2019-03-02T16:57:42.254Z,8.90
2019-03-02T17:00:32.354Z,8.80
2019-03-02T17:03:16.555Z,8.80
2019-03-02T17:06:09.303Z,8.80
2019-03-02T17:09:00.261Z,8.80
2019-03-02T17:12:00.646Z,8.80
2019-03-02T17:14:58.222Z,8.70
2019-03-02T17:17:49.254Z,8.70
2019-03-02T17:20:34.315Z,8.70
2019-03-02T17:23:23.385Z,8.70
2019-03-02T17:26:05.005Z,8.70
2019-03-02T17:28:45.171Z,8.60
2019-03-02T17:31:45.658Z,8.60
2019-03-02T17:34:28.506Z,8.50
2019-03-02T17:37:16.168Z,8.50
2019-03-02T17:40:05.730Z,8.50
2019-03-02T17:42:58.097Z,8.50
2019-03-02T17:45:45.558Z,8.50
2019-03-02T17:48:57.599Z,8.50
2019-03-02T17:51:49.874Z,8.50
2019-03-02T17:54:42.259Z,8.50
2019-03-02T17:57:30.482Z,8.40
2019-03-02T18:00:19.767Z,8.40
2019-03-02T18:03:12.391Z,8.40
2019-03-02T18:06:10.185Z,8.40
2019-03-02T18:09:04.446Z,8.30
2019-03-02T18:11:52.885Z,8.30
2019-03-02T18:14:36.132Z,8.30
2019-03-02T18:18:01.444Z,8.30
2019-03-02T18:20:32.501Z,8.30
2019-03-02T18:23:22.458Z,8.30
2019-03-02T18:25:52.949Z,8.20
2019-03-02T18:28:22.459Z,8.20
2019-03-02T18:30:52.121Z,8.20
2019-03-02T18:33:33.461Z,8.30
2019-03-02T18:36:03.073Z,8.20
2019-03-02T18:38:32.651Z,8.20
2019-03-02T18:41:02.860Z,8.20
2019-03-02T18:43:32.673Z,8.20
2019-03-02T18:46:02.282Z,8.20
2019-03-02T18:48:47.407Z,8.20
2019-03-02T18:51:59.777Z,8.10
2019-03-02T18:54:29.391Z,8.00
2019-03-02T18:56:59.415Z,7.80
2019-03-02T18:59:29.029Z,7.70
2019-03-02T19:01:58.635Z,7.60
2019-03-02T19:04:33.566Z,7.50
2019-03-02T19:07:03.417Z,7.50
2019-03-02T19:09:34.102Z,7.60
2019-03-02T19:12:03.764Z,7.70
2019-03-02T19:14:33.422Z,7.70
2019-03-02T19:17:03.086Z,7.70
2019-03-02T19:19:32.701Z,7.80
2019-03-02T19:22:02.389Z,7.80
2019-03-02T19:24:31.949Z,7.80
2019-03-02T19:27:01.589Z,7.80
2019-03-02T19:29:31.128Z,7.90
2019-03-02T19:32:00.706Z,7.80
2019-03-02T19:34:30.382Z,7.80
2019-03-02T19:36:59.927Z,7.90
2019-03-02T19:39:32.163Z,7.90
2019-03-02T19:42:01.741Z,7.90
2019-03-02T19:44:31.353Z,7.90
2019-03-02T19:47:00.899Z,7.90
2019-03-02T19:49:30.648Z,7.90
2019-03-02T19:52:00.598Z,7.90
2019-03-02T19:54:30.165Z,7.90
2019-03-02T19:56:59.689Z,7.90
2019-03-02T19:59:29.253Z,7.90
2019-03-02T20:01:58.837Z,7.80
2019-03-02T20:04:28.434Z,7.80
2019-03-02T20:06:58.003Z,7.80
2019-03-02T20:09:27.483Z,7.80
2019-03-02T20:11:57.404Z,7.80
2019-03-02T20:14:26.931Z,7.80
2019-03-02T20:16:56.570Z,7.80
2019-03-02T20:19:26.168Z,7.80
2019-03-02T20:21:56.128Z,7.80
2019-03-02T20:24:25.640Z,7.80
2019-03-02T20:26:55.290Z,7.80
2019-03-02T20:29:24.934Z,7.80
2019-03-02T20:31:54.585Z,7.70
2019-03-02T20:34:24.138Z,7.70
2019-03-02T20:36:53.729Z,7.70
2019-03-02T20:39:23.731Z,7.60
2019-03-02T20:41:53.326Z,7.60
2019-03-02T20:44:22.978Z,7.50
2019-03-02T20:46:52.520Z,7.50
2019-03-02T20:49:22.049Z,7.50
2019-03-02T20:51:53.236Z,7.60
2019-03-02T20:54:23.102Z,7.50
2019-03-02T20:57:47.551Z,7.50
2019-03-02T21:00:20.118Z,7.50
2019-03-02T21:02:49.933Z,7.50
2019-03-02T21:05:19.490Z,7.50
2019-03-02T21:07:49.108Z,7.60
2019-03-02T21:10:19.965Z,7.60
2019-03-02T21:12:49.598Z,7.50
2019-03-02T21:15:23.053Z,7.60
2019-03-02T21:17:52.643Z,7.50
2019-03-02T21:20:22.346Z,7.50
2019-03-02T21:22:51.844Z,7.50
2019-03-02T21:25:21.504Z,7.60
2019-03-02T21:27:51.125Z,7.60
2019-03-02T21:30:20.675Z,7.60
2019-03-02T21:32:50.380Z,7.60
2019-03-02T21:35:20.015Z,7.60
2019-03-02T21:37:49.686Z,7.60
2019-03-02T21:40:20.577Z,7.50
2019-03-02T21:42:50.258Z,7.60
2019-03-02T21:45:20.813Z,7.60
2019-03-02T21:47:50.991Z,7.60
2019-03-02T21:50:22.691Z,7.60
2019-03-02T21:52:52.406Z,7.70
2019-03-02T21:55:22.302Z,7.60
2019-03-02T21:57:51.842Z,7.70
2019-03-02T22:00:23.534Z,7.60
2019-03-02T22:02:53.613Z,7.60
2019-03-02T22:05:23.416Z,7.60
2019-03-02T22:07:55.390Z,7.60
2019-03-02T22:10:30.640Z,7.60
2019-03-02T22:13:00.285Z,7.60
2019-03-02T22:15:30.821Z,7.70
2019-03-02T22:18:00.513Z,7.70
2019-03-02T22:20:30.053Z,7.70
2019-03-02T22:22:59.523Z,7.70
2019-03-02T22:25:30.087Z,7.70
2019-03-02T22:27:59.608Z,7.70
2019-03-02T22:30:29.107Z,7.70
2019-03-02T22:32:58.611Z,7.80
2019-03-02T22:35:28.292Z,7.80
2019-03-02T22:37:57.765Z,7.80
2019-03-02T22:40:27.232Z,7.80
2019-03-02T22:42:56.758Z,7.80
2019-03-02T22:45:26.266Z,7.80
2019-03-02T22:47:55.805Z,7.80
2019-03-02T22:50:25.459Z,7.90
2019-03-02T22:52:55.004Z,7.90
2019-03-02T22:55:24.597Z,7.90
2019-03-02T22:57:54.101Z,7.80
2019-03-02T23:01:04.982Z,7.80
2019-03-02T23:03:32.692Z,7.80
2019-03-02T23:06:02.240Z,7.70
2019-03-02T23:08:31.868Z,7.60
2019-03-02T23:11:01.385Z,7.50
2019-03-02T23:13:30.878Z,7.60
2019-03-02T23:16:00.640Z,7.60
2019-03-02T23:18:30.199Z,7.60
2019-03-02T23:21:00.055Z,7.70
2019-03-02T23:23:29.572Z,7.70
2019-03-02T23:25:59.268Z,7.60
2019-03-02T23:28:28.777Z,7.70
2019-03-02T23:30:58.430Z,7.60
2019-03-02T23:33:28.123Z,7.70
2019-03-02T23:35:57.776Z,7.70
2019-03-02T23:38:27.665Z,7.80
2019-03-02T23:40:57.180Z,7.70
2019-03-02T23:43:26.770Z,7.70
2019-03-02T23:45:56.242Z,7.70
2019-03-02T23:48:25.767Z,7.70
2019-03-02T23:50:55.408Z,7.70
2019-03-02T23:53:24.878Z,7.70
2019-03-02T23:55:54.236Z,7.70
2019-03-02T23:58:23.625Z,7.70
